sensor_id;sensor_type;location;lat;lon;timestamp;temperature;humidity
66328;DHT22;53133;52.862;6.602;2023-05-23T00:02:09;14.90;99.90
66328;DHT22;53133;52.862;6.602;2023-05-23T00:04:37;15.00;99.90
66328;DHT22;53133;52.862;6.602;2023-05-23T00:07:03;14.90;99.90
66328;DHT22;53133;52.862;6.602;2023-05-23T00:09:29;15.00;99.90
66328;DHT22;53133;52.862;6.602;2023-05-23T00:11:55;15.00;99.90
66328;DHT22;53133;52.862;6.602;2023-05-23T00:14:20;15.00;99.90
66328;DHT22;53133;52.862;6.602;2023-05-23T00:16:46;15.00;99.90
66328;DHT22;53133;52.862;6.602;2023-05-23T00:19:14;15.00;99.90
66328;DHT22;53133;52.862;6.602;2023-05-23T00:21:41;15.00;99.90
66328;DHT22;53133;52.862;6.602;2023-05-23T00:24:08;15.00;99.90
66328;DHT22;53133;52.862;6.602;2023-05-23T00:26:34;14.90;99.90
66328;DHT22;53133;52.862;6.602;2023-05-23T00:29:00;14.90;99.90
66328;DHT22;53133;52.862;6.602;2023-05-23T00:31:26;14.90;99.90
66328;DHT22;53133;52.862;6.602;2023-05-23T00:33:52;14.90;99.90
66328;DHT22;53133;52.862;6.602;2023-05-23T00:36:17;14.90;99.90
66328;DHT22;53133;52.862;6.602;2023-05-23T00:38:43;14.90;99.90
66328;DHT22;53133;52.862;6.602;2023-05-23T00:41:10;15.00;99.90
66328;DHT22;53133;52.862;6.602;2023-05-23T00:43:36;14.90;99.90
66328;DHT22;53133;52.862;6.602;2023-05-23T00:46:01;14.80;99.90
66328;DHT22;53133;52.862;6.602;2023-05-23T00:48:31;14.80;99.90
66328;DHT22;53133;52.862;6.602;2023-05-23T00:50:56;14.80;99.90
66328;DHT22;53133;52.862;6.602;2023-05-23T00:53:23;14.80;99.90
66328;DHT22;53133;52.862;6.602;2023-05-23T00:55:49;14.80;99.90
66328;DHT22;53133;52.862;6.602;2023-05-23T00:58:15;14.80;99.90
66328;DHT22;53133;52.862;6.602;2023-05-23T01:00:42;14.80;99.90
66328;DHT22;53133;52.862;6.602;2023-05-23T01:03:09;14.80;99.90
66328;DHT22;53133;52.862;6.602;2023-05-23T01:05:45;14.80;99.90
66328;DHT22;53133;52.862;6.602;2023-05-23T01:08:10;14.80;99.90
66328;DHT22;53133;52.862;6.602;2023-05-23T01:10:37;14.80;99.90
66328;DHT22;53133;52.862;6.602;2023-05-23T01:13:28;14.80;99.90
66328;DHT22;53133;52.862;6.602;2023-05-23T01:16:27;14.80;99.90
66328;DHT22;53133;52.862;6.602;2023-05-23T01:19:00;14.70;99.90
66328;DHT22;53133;52.862;6.602;2023-05-23T01:21:28;14.70;99.90
66328;DHT22;53133;52.862;6.602;2023-05-23T01:29:45;14.60;99.90
66328;DHT22;53133;52.862;6.602;2023-05-23T01:32:15;14.60;99.90
66328;DHT22;53133;52.862;6.602;2023-05-23T01:34:41;14.50;99.90
66328;DHT22;53133;52.862;6.602;2023-05-23T01:37:11;14.50;99.90
66328;DHT22;53133;52.862;6.602;2023-05-23T01:39:39;14.50;99.90
66328;DHT22;53133;52.862;6.602;2023-05-23T01:42:05;14.50;99.90
66328;DHT22;53133;52.862;6.602;2023-05-23T01:44:33;14.40;99.90
66328;DHT22;53133;52.862;6.602;2023-05-23T01:46:59;14.40;99.90
66328;DHT22;53133;52.862;6.602;2023-05-23T01:49:27;14.40;99.90
66328;DHT22;53133;52.862;6.602;2023-05-23T01:51:53;14.40;99.90
66328;DHT22;53133;52.862;6.602;2023-05-23T01:54:19;14.40;99.90
66328;DHT22;53133;52.862;6.602;2023-05-23T01:56:45;14.40;99.90
66328;DHT22;53133;52.862;6.602;2023-05-23T01:59:11;14.40;99.90
66328;DHT22;53133;52.862;6.602;2023-05-23T02:01:37;14.40;99.90
66328;DHT22;53133;52.862;6.602;2023-05-23T02:04:03;14.40;99.90
66328;DHT22;53133;52.862;6.602;2023-05-23T02:06:29;14.40;99.90
66328;DHT22;53133;52.862;6.602;2023-05-23T02:08:56;14.30;99.90
66328;DHT22;53133;52.862;6.602;2023-05-23T02:11:21;14.30;99.90
66328;DHT22;53133;52.862;6.602;2023-05-23T02:13:47;14.40;99.90
66328;DHT22;53133;52.862;6.602;2023-05-23T02:16:13;14.40;99.90
66328;DHT22;53133;52.862;6.602;2023-05-23T02:18:38;14.30;99.90
66328;DHT22;53133;52.862;6.602;2023-05-23T02:21:04;14.30;99.90
66328;DHT22;53133;52.862;6.602;2023-05-23T02:23:30;14.20;99.90
66328;DHT22;53133;52.862;6.602;2023-05-23T02:25:56;14.20;99.90
66328;DHT22;53133;52.862;6.602;2023-05-23T02:28:21;14.20;99.90
66328;DHT22;53133;52.862;6.602;2023-05-23T02:30:47;14.10;99.90
66328;DHT22;53133;52.862;6.602;2023-05-23T02:33:13;14.00;99.90
66328;DHT22;53133;52.862;6.602;2023-05-23T02:35:38;14.00;99.90
66328;DHT22;53133;52.862;6.602;2023-05-23T02:38:04;14.00;99.90
66328;DHT22;53133;52.862;6.602;2023-05-23T02:40:30;14.00;99.90
66328;DHT22;53133;52.862;6.602;2023-05-23T02:42:55;13.90;99.90
66328;DHT22;53133;52.862;6.602;2023-05-23T02:45:22;13.90;99.90
66328;DHT22;53133;52.862;6.602;2023-05-23T02:47:48;13.90;99.90
66328;DHT22;53133;52.862;6.602;2023-05-23T02:50:13;13.90;99.90
66328;DHT22;53133;52.862;6.602;2023-05-23T02:52:40;13.80;99.90
66328;DHT22;53133;52.862;6.602;2023-05-23T02:55:07;13.90;99.90
66328;DHT22;53133;52.862;6.602;2023-05-23T02:57:33;13.90;99.90
66328;DHT22;53133;52.862;6.602;2023-05-23T02:59:58;13.90;99.90
66328;DHT22;53133;52.862;6.602;2023-05-23T03:02:24;13.80;99.90
66328;DHT22;53133;52.862;6.602;2023-05-23T03:04:50;13.80;99.90
66328;DHT22;53133;52.862;6.602;2023-05-23T03:07:15;13.80;99.90
66328;DHT22;53133;52.862;6.602;2023-05-23T03:09:41;13.70;99.90
66328;DHT22;53133;52.862;6.602;2023-05-23T03:12:06;13.70;99.90
66328;DHT22;53133;52.862;6.602;2023-05-23T03:14:32;13.60;99.90
66328;DHT22;53133;52.862;6.602;2023-05-23T03:16:58;13.60;99.90
66328;DHT22;53133;52.862;6.602;2023-05-23T03:19:23;13.50;99.90
66328;DHT22;53133;52.862;6.602;2023-05-23T03:21:52;13.50;99.90
66328;DHT22;53133;52.862;6.602;2023-05-23T03:24:27;13.40;99.90
66328;DHT22;53133;52.862;6.602;2023-05-23T03:26:52;13.50;99.90
66328;DHT22;53133;52.862;6.602;2023-05-23T03:29:18;13.40;99.90
66328;DHT22;53133;52.862;6.602;2023-05-23T03:31:43;13.40;99.90
66328;DHT22;53133;52.862;6.602;2023-05-23T03:34:09;13.40;99.90
66328;DHT22;53133;52.862;6.602;2023-05-23T03:36:34;13.40;99.90
66328;DHT22;53133;52.862;6.602;2023-05-23T03:39:03;13.40;99.90
66328;DHT22;53133;52.862;6.602;2023-05-23T03:41:30;13.40;99.90
66328;DHT22;53133;52.862;6.602;2023-05-23T03:43:55;13.40;99.90
66328;DHT22;53133;52.862;6.602;2023-05-23T03:46:21;13.40;99.90
66328;DHT22;53133;52.862;6.602;2023-05-23T03:48:47;13.30;99.90
66328;DHT22;53133;52.862;6.602;2023-05-23T03:51:12;13.30;99.90
66328;DHT22;53133;52.862;6.602;2023-05-23T03:53:38;13.20;99.90
66328;DHT22;53133;52.862;6.602;2023-05-23T03:56:04;13.30;99.90
66328;DHT22;53133;52.862;6.602;2023-05-23T03:58:30;13.30;99.90
66328;DHT22;53133;52.862;6.602;2023-05-23T04:00:55;13.30;99.90
66328;DHT22;53133;52.862;6.602;2023-05-23T04:03:22;13.30;99.90
66328;DHT22;53133;52.862;6.602;2023-05-23T04:05:48;13.30;99.90
66328;DHT22;53133;52.862;6.602;2023-05-23T04:08:14;13.30;99.90
66328;DHT22;53133;52.862;6.602;2023-05-23T04:10:40;13.30;99.90
66328;DHT22;53133;52.862;6.602;2023-05-23T04:13:05;13.30;99.90
66328;DHT22;53133;52.862;6.602;2023-05-23T04:15:31;13.30;99.90
66328;DHT22;53133;52.862;6.602;2023-05-23T04:17:58;13.30;99.90
66328;DHT22;53133;52.862;6.602;2023-05-23T04:20:27;13.30;99.90
66328;DHT22;53133;52.862;6.602;2023-05-23T04:22:53;13.20;99.90
66328;DHT22;53133;52.862;6.602;2023-05-23T04:25:19;13.20;99.90
66328;DHT22;53133;52.862;6.602;2023-05-23T04:27:44;13.20;99.90
66328;DHT22;53133;52.862;6.602;2023-05-23T04:30:12;13.20;99.90
66328;DHT22;53133;52.862;6.602;2023-05-23T04:32:37;13.20;99.90
66328;DHT22;53133;52.862;6.602;2023-05-23T04:35:03;13.20;99.90
66328;DHT22;53133;52.862;6.602;2023-05-23T04:37:29;13.20;99.90
66328;DHT22;53133;52.862;6.602;2023-05-23T04:39:57;13.20;99.90
66328;DHT22;53133;52.862;6.602;2023-05-23T04:42:24;13.20;99.90
66328;DHT22;53133;52.862;6.602;2023-05-23T04:44:50;13.20;99.90
66328;DHT22;53133;52.862;6.602;2023-05-23T04:47:17;13.20;99.90
66328;DHT22;53133;52.862;6.602;2023-05-23T04:49:43;13.10;99.90
66328;DHT22;53133;52.862;6.602;2023-05-23T04:52:09;13.10;99.90
66328;DHT22;53133;52.862;6.602;2023-05-23T04:54:35;13.10;99.90
66328;DHT22;53133;52.862;6.602;2023-05-23T04:57:02;13.00;99.90
66328;DHT22;53133;52.862;6.602;2023-05-23T04:59:27;13.10;99.90
66328;DHT22;53133;52.862;6.602;2023-05-23T05:01:53;13.00;99.90
66328;DHT22;53133;52.862;6.602;2023-05-23T05:04:18;13.00;99.90
66328;DHT22;53133;52.862;6.602;2023-05-23T05:06:44;13.00;99.90
66328;DHT22;53133;52.862;6.602;2023-05-23T05:09:12;13.00;99.90
66328;DHT22;53133;52.862;6.602;2023-05-23T05:11:38;13.00;99.90
66328;DHT22;53133;52.862;6.602;2023-05-23T05:14:03;12.90;99.90
66328;DHT22;53133;52.862;6.602;2023-05-23T05:16:29;12.90;99.90
66328;DHT22;53133;52.862;6.602;2023-05-23T05:18:55;12.90;99.90
66328;DHT22;53133;52.862;6.602;2023-05-23T05:21:21;12.80;99.90
66328;DHT22;53133;52.862;6.602;2023-05-23T05:23:47;12.80;99.90
66328;DHT22;53133;52.862;6.602;2023-05-23T05:26:12;12.80;99.90
66328;DHT22;53133;52.862;6.602;2023-05-23T05:28:38;12.70;99.90
66328;DHT22;53133;52.862;6.602;2023-05-23T05:31:03;12.80;99.90
66328;DHT22;53133;52.862;6.602;2023-05-23T05:33:29;12.80;99.90
66328;DHT22;53133;52.862;6.602;2023-05-23T05:36:05;12.70;99.90
66328;DHT22;53133;52.862;6.602;2023-05-23T05:38:30;12.70;99.90
66328;DHT22;53133;52.862;6.602;2023-05-23T05:40:56;12.70;99.90
66328;DHT22;53133;52.862;6.602;2023-05-23T05:43:22;12.70;99.90
66328;DHT22;53133;52.862;6.602;2023-05-23T05:45:47;12.70;99.90
66328;DHT22;53133;52.862;6.602;2023-05-23T05:48:16;12.60;99.90
66328;DHT22;53133;52.862;6.602;2023-05-23T05:50:42;12.60;99.90
66328;DHT22;53133;52.862;6.602;2023-05-23T05:53:10;12.60;99.90
66328;DHT22;53133;52.862;6.602;2023-05-23T05:55:36;12.60;99.90
66328;DHT22;53133;52.862;6.602;2023-05-23T05:58:02;12.50;99.90
66328;DHT22;53133;52.862;6.602;2023-05-23T06:00:31;12.50;99.90
66328;DHT22;53133;52.862;6.602;2023-05-23T06:02:57;12.50;99.90
66328;DHT22;53133;52.862;6.602;2023-05-23T06:05:23;12.50;99.90
66328;DHT22;53133;52.862;6.602;2023-05-23T06:07:49;12.40;99.90
66328;DHT22;53133;52.862;6.602;2023-05-23T06:10:15;12.40;99.90
66328;DHT22;53133;52.862;6.602;2023-05-23T06:12:41;12.30;99.90
66328;DHT22;53133;52.862;6.602;2023-05-23T06:15:07;12.30;99.90
66328;DHT22;53133;52.862;6.602;2023-05-23T06:17:38;12.30;99.90
66328;DHT22;53133;52.862;6.602;2023-05-23T06:20:04;12.20;99.90
66328;DHT22;53133;52.862;6.602;2023-05-23T06:22:30;12.20;99.90
66328;DHT22;53133;52.862;6.602;2023-05-23T06:24:56;12.20;99.90
66328;DHT22;53133;52.862;6.602;2023-05-23T06:27:21;12.20;99.90
66328;DHT22;53133;52.862;6.602;2023-05-23T06:29:47;12.30;99.90
66328;DHT22;53133;52.862;6.602;2023-05-23T06:32:12;12.20;99.90
66328;DHT22;53133;52.862;6.602;2023-05-23T06:34:38;12.20;99.90
66328;DHT22;53133;52.862;6.602;2023-05-23T06:37:04;12.30;99.90
66328;DHT22;53133;52.862;6.602;2023-05-23T06:39:29;12.30;99.90
66328;DHT22;53133;52.862;6.602;2023-05-23T06:41:55;12.20;99.90
66328;DHT22;53133;52.862;6.602;2023-05-23T06:44:20;12.30;99.90
66328;DHT22;53133;52.862;6.602;2023-05-23T06:46:49;12.30;99.90
66328;DHT22;53133;52.862;6.602;2023-05-23T06:49:14;12.20;99.90
66328;DHT22;53133;52.862;6.602;2023-05-23T06:51:40;12.20;99.90
66328;DHT22;53133;52.862;6.602;2023-05-23T06:54:06;12.20;99.90
66328;DHT22;53133;52.862;6.602;2023-05-23T06:56:31;12.20;99.90
66328;DHT22;53133;52.862;6.602;2023-05-23T06:58:57;12.20;99.90
66328;DHT22;53133;52.862;6.602;2023-05-23T07:01:22;12.20;99.90
66328;DHT22;53133;52.862;6.602;2023-05-23T07:03:48;12.30;99.90
66328;DHT22;53133;52.862;6.602;2023-05-23T07:06:14;12.20;99.90
66328;DHT22;53133;52.862;6.602;2023-05-23T07:08:39;12.30;99.90
66328;DHT22;53133;52.862;6.602;2023-05-23T07:11:05;12.30;99.90
66328;DHT22;53133;52.862;6.602;2023-05-23T07:13:31;12.30;99.90
66328;DHT22;53133;52.862;6.602;2023-05-23T07:15:57;12.30;99.90
66328;DHT22;53133;52.862;6.602;2023-05-23T07:18:23;12.30;99.90
66328;DHT22;53133;52.862;6.602;2023-05-23T07:20:48;12.30;99.90
66328;DHT22;53133;52.862;6.602;2023-05-23T07:23:14;12.30;99.90
66328;DHT22;53133;52.862;6.602;2023-05-23T07:25:40;12.40;99.90
66328;DHT22;53133;52.862;6.602;2023-05-23T07:28:07;12.40;99.90
66328;DHT22;53133;52.862;6.602;2023-05-23T07:30:33;12.40;99.90
66328;DHT22;53133;52.862;6.602;2023-05-23T07:32:58;12.50;99.90
66328;DHT22;53133;52.862;6.602;2023-05-23T07:35:24;12.60;99.90
66328;DHT22;53133;52.862;6.602;2023-05-23T07:37:54;12.70;99.90
66328;DHT22;53133;52.862;6.602;2023-05-23T07:40:20;12.70;99.90
66328;DHT22;53133;52.862;6.602;2023-05-23T07:42:46;12.70;99.90
66328;DHT22;53133;52.862;6.602;2023-05-23T07:45:12;12.80;99.90
66328;DHT22;53133;52.862;6.602;2023-05-23T07:47:38;12.70;99.90
66328;DHT22;53133;52.862;6.602;2023-05-23T07:50:04;12.70;99.90
66328;DHT22;53133;52.862;6.602;2023-05-23T07:52:31;12.60;99.90
66328;DHT22;53133;52.862;6.602;2023-05-23T07:54:57;12.60;99.90
66328;DHT22;53133;52.862;6.602;2023-05-23T07:57:25;12.60;99.90
66328;DHT22;53133;52.862;6.602;2023-05-23T07:59:52;12.60;99.90
66328;DHT22;53133;52.862;6.602;2023-05-23T08:02:18;12.60;99.90
66328;DHT22;53133;52.862;6.602;2023-05-23T08:04:45;12.60;99.90
66328;DHT22;53133;52.862;6.602;2023-05-23T08:07:14;12.50;99.90
66328;DHT22;53133;52.862;6.602;2023-05-23T08:09:39;12.40;99.90
66328;DHT22;53133;52.862;6.602;2023-05-23T08:12:06;12.40;99.90
66328;DHT22;53133;52.862;6.602;2023-05-23T08:14:32;12.40;99.90
66328;DHT22;53133;52.862;6.602;2023-05-23T08:16:58;12.50;99.90
66328;DHT22;53133;52.862;6.602;2023-05-23T08:19:23;12.50;99.90
66328;DHT22;53133;52.862;6.602;2023-05-23T08:21:49;12.50;99.90
66328;DHT22;53133;52.862;6.602;2023-05-23T08:24:20;12.60;99.90
66328;DHT22;53133;52.862;6.602;2023-05-23T08:26:46;12.60;99.90
66328;DHT22;53133;52.862;6.602;2023-05-23T08:29:13;12.70;99.90
66328;DHT22;53133;52.862;6.602;2023-05-23T08:31:38;12.70;99.90
66328;DHT22;53133;52.862;6.602;2023-05-23T08:34:07;12.80;99.90
66328;DHT22;53133;52.862;6.602;2023-05-23T08:36:33;12.80;99.90
66328;DHT22;53133;52.862;6.602;2023-05-23T08:39:00;12.90;99.90
66328;DHT22;53133;52.862;6.602;2023-05-23T08:41:26;12.90;99.90
66328;DHT22;53133;52.862;6.602;2023-05-23T08:43:52;12.90;99.90
66328;DHT22;53133;52.862;6.602;2023-05-23T08:46:18;13.00;99.90
66328;DHT22;53133;52.862;6.602;2023-05-23T08:48:50;13.10;99.90
66328;DHT22;53133;52.862;6.602;2023-05-23T08:51:16;13.10;99.90
66328;DHT22;53133;52.862;6.602;2023-05-23T08:53:42;13.20;99.90
66328;DHT22;53133;52.862;6.602;2023-05-23T08:56:11;13.20;99.90
66328;DHT22;53133;52.862;6.602;2023-05-23T08:58:37;13.40;99.90
66328;DHT22;53133;52.862;6.602;2023-05-23T09:01:05;13.40;99.90
66328;DHT22;53133;52.862;6.602;2023-05-23T09:03:30;13.60;99.90
66328;DHT22;53133;52.862;6.602;2023-05-23T09:05:57;13.60;99.90
66328;DHT22;53133;52.862;6.602;2023-05-23T09:08:23;13.70;99.90
66328;DHT22;53133;52.862;6.602;2023-05-23T09:10:53;13.70;99.90
66328;DHT22;53133;52.862;6.602;2023-05-23T09:13:19;13.70;99.90
66328;DHT22;53133;52.862;6.602;2023-05-23T09:16:03;13.70;99.90
66328;DHT22;53133;52.862;6.602;2023-05-23T09:18:36;13.60;99.90
66328;DHT22;53133;52.862;6.602;2023-05-23T09:21:02;13.60;99.90
66328;DHT22;53133;52.862;6.602;2023-05-23T09:23:31;13.60;99.90
66328;DHT22;53133;52.862;6.602;2023-05-23T09:26:04;13.70;99.90
66328;DHT22;53133;52.862;6.602;2023-05-23T09:28:31;13.80;99.90
66328;DHT22;53133;52.862;6.602;2023-05-23T09:30:59;13.80;99.90
66328;DHT22;53133;52.862;6.602;2023-05-23T09:36:02;13.70;99.90
66328;DHT22;53133;52.862;6.602;2023-05-23T09:38:28;13.70;99.90
66328;DHT22;53133;52.862;6.602;2023-05-23T09:40:54;13.70;99.90
66328;DHT22;53133;52.862;6.602;2023-05-23T09:43:22;13.60;99.90
66328;DHT22;53133;52.862;6.602;2023-05-23T09:45:48;13.80;99.90
66328;DHT22;53133;52.862;6.602;2023-05-23T09:48:13;13.80;99.90
66328;DHT22;53133;52.862;6.602;2023-05-23T09:50:39;13.80;99.90
66328;DHT22;53133;52.862;6.602;2023-05-23T09:53:05;13.70;99.90
66328;DHT22;53133;52.862;6.602;2023-05-23T09:55:31;13.80;99.90
66328;DHT22;53133;52.862;6.602;2023-05-23T09:57:58;13.70;99.90
66328;DHT22;53133;52.862;6.602;2023-05-23T10:00:24;13.80;99.90
66328;DHT22;53133;52.862;6.602;2023-05-23T10:05:43;13.80;99.90
66328;DHT22;53133;52.862;6.602;2023-05-23T10:13:30;13.80;99.90
66328;DHT22;53133;52.862;6.602;2023-05-23T10:16:07;13.90;99.90
66328;DHT22;53133;52.862;6.602;2023-05-23T10:18:38;14.00;99.90
66328;DHT22;53133;52.862;6.602;2023-05-23T10:21:10;13.90;99.90
66328;DHT22;53133;52.862;6.602;2023-05-23T10:23:37;14.00;99.90
66328;DHT22;53133;52.862;6.602;2023-05-23T10:26:03;14.10;99.90
66328;DHT22;53133;52.862;6.602;2023-05-23T10:28:33;14.20;99.90
66328;DHT22;53133;52.862;6.602;2023-05-23T10:30:59;14.20;99.90
66328;DHT22;53133;52.862;6.602;2023-05-23T10:33:26;14.40;99.90
66328;DHT22;53133;52.862;6.602;2023-05-23T10:36:01;14.40;99.90
66328;DHT22;53133;52.862;6.602;2023-05-23T10:38:36;14.40;99.90
66328;DHT22;53133;52.862;6.602;2023-05-23T10:41:35;14.40;99.90
66328;DHT22;53133;52.862;6.602;2023-05-23T10:44:15;14.40;99.90
66328;DHT22;53133;52.862;6.602;2023-05-23T10:46:52;14.40;98.50
66328;DHT22;53133;52.862;6.602;2023-05-23T10:49:44;14.40;99.90
66328;DHT22;53133;52.862;6.602;2023-05-23T10:52:12;14.40;96.90
66328;DHT22;53133;52.862;6.602;2023-05-23T10:54:50;14.40;98.80
66328;DHT22;53133;52.862;6.602;2023-05-23T10:57:21;14.40;98.10
66328;DHT22;53133;52.862;6.602;2023-05-23T10:59:50;14.30;98.90
66328;DHT22;53133;52.862;6.602;2023-05-23T11:02:27;14.20;98.00
66328;DHT22;53133;52.862;6.602;2023-05-23T11:05:18;14.20;97.00
66328;DHT22;53133;52.862;6.602;2023-05-23T11:10:32;14.40;97.70
66328;DHT22;53133;52.862;6.602;2023-05-23T11:13:05;14.30;97.40
66328;DHT22;53133;52.862;6.602;2023-05-23T11:15:40;14.40;96.50
66328;DHT22;53133;52.862;6.602;2023-05-23T11:18:07;14.30;94.70
66328;DHT22;53133;52.862;6.602;2023-05-23T11:20:36;14.40;95.20
66328;DHT22;53133;52.862;6.602;2023-05-23T11:23:06;14.50;95.50
66328;DHT22;53133;52.862;6.602;2023-05-23T11:25:50;14.60;96.00
66328;DHT22;53133;52.862;6.602;2023-05-23T11:28:17;14.60;95.40
66328;DHT22;53133;52.862;6.602;2023-05-23T11:30:43;14.50;94.70
66328;DHT22;53133;52.862;6.602;2023-05-23T11:33:10;14.50;93.80
66328;DHT22;53133;52.862;6.602;2023-05-23T11:35:42;14.50;93.20
66328;DHT22;53133;52.862;6.602;2023-05-23T11:38:09;14.50;93.40
66328;DHT22;53133;52.862;6.602;2023-05-23T11:40:37;14.60;94.90
66328;DHT22;53133;52.862;6.602;2023-05-23T11:43:05;14.60;94.10
66328;DHT22;53133;52.862;6.602;2023-05-23T11:45:31;14.60;93.40
66328;DHT22;53133;52.862;6.602;2023-05-23T11:47:58;14.60;92.60
66328;DHT22;53133;52.862;6.602;2023-05-23T11:50:23;14.60;92.40
66328;DHT22;53133;52.862;6.602;2023-05-23T11:52:49;14.60;92.60
66328;DHT22;53133;52.862;6.602;2023-05-23T11:55:19;14.50;93.40
66328;DHT22;53133;52.862;6.602;2023-05-23T11:57:45;14.50;94.20
66328;DHT22;53133;52.862;6.602;2023-05-23T12:00:11;14.50;95.00
66328;DHT22;53133;52.862;6.602;2023-05-23T12:02:46;14.50;95.10
66328;DHT22;53133;52.862;6.602;2023-05-23T12:05:13;14.50;95.10
66328;DHT22;53133;52.862;6.602;2023-05-23T12:07:40;14.40;94.70
66328;DHT22;53133;52.862;6.602;2023-05-23T12:10:07;14.40;93.30
66328;DHT22;53133;52.862;6.602;2023-05-23T12:12:32;14.40;94.10
66328;DHT22;53133;52.862;6.602;2023-05-23T12:14:58;14.50;92.80
66328;DHT22;53133;52.862;6.602;2023-05-23T12:17:24;14.50;92.20
66328;DHT22;53133;52.862;6.602;2023-05-23T12:19:52;14.50;91.10
66328;DHT22;53133;52.862;6.602;2023-05-23T12:22:24;14.50;90.70
66328;DHT22;53133;52.862;6.602;2023-05-23T12:24:54;14.50;92.10
66328;DHT22;53133;52.862;6.602;2023-05-23T12:27:27;14.50;92.20
66328;DHT22;53133;52.862;6.602;2023-05-23T12:30:07;14.40;92.40
66328;DHT22;53133;52.862;6.602;2023-05-23T12:32:34;14.30;92.80
66328;DHT22;53133;52.862;6.602;2023-05-23T12:35:00;14.40;92.10
66328;DHT22;53133;52.862;6.602;2023-05-23T12:37:26;14.50;92.50
66328;DHT22;53133;52.862;6.602;2023-05-23T12:39:51;14.50;92.10
66328;DHT22;53133;52.862;6.602;2023-05-23T12:42:17;14.50;91.80
66328;DHT22;53133;52.862;6.602;2023-05-23T12:44:42;14.40;89.40
66328;DHT22;53133;52.862;6.602;2023-05-23T12:47:08;14.40;87.60
66328;DHT22;53133;52.862;6.602;2023-05-23T12:49:37;14.40;86.80
66328;DHT22;53133;52.862;6.602;2023-05-23T12:52:03;14.50;86.50
66328;DHT22;53133;52.862;6.602;2023-05-23T12:54:29;14.50;87.20
66328;DHT22;53133;52.862;6.602;2023-05-23T12:56:54;14.50;87.20
66328;DHT22;53133;52.862;6.602;2023-05-23T12:59:20;14.50;86.60
66328;DHT22;53133;52.862;6.602;2023-05-23T13:01:45;14.60;83.90
66328;DHT22;53133;52.862;6.602;2023-05-23T13:04:14;14.70;83.90
66328;DHT22;53133;52.862;6.602;2023-05-23T13:06:40;14.80;83.20
66328;DHT22;53133;52.862;6.602;2023-05-23T13:09:05;14.70;84.20
66328;DHT22;53133;52.862;6.602;2023-05-23T13:11:31;14.60;85.80
66328;DHT22;53133;52.862;6.602;2023-05-23T13:13:56;14.60;86.40
66328;DHT22;53133;52.862;6.602;2023-05-23T13:16:22;14.60;87.30
66328;DHT22;53133;52.862;6.602;2023-05-23T13:18:48;14.70;87.20
66328;DHT22;53133;52.862;6.602;2023-05-23T13:21:13;14.70;89.20
66328;DHT22;53133;52.862;6.602;2023-05-23T13:23:39;14.70;90.10
66328;DHT22;53133;52.862;6.602;2023-05-23T13:26:05;14.60;87.80
66328;DHT22;53133;52.862;6.602;2023-05-23T13:28:31;14.50;88.00
66328;DHT22;53133;52.862;6.602;2023-05-23T13:30:57;14.40;87.50
66328;DHT22;53133;52.862;6.602;2023-05-23T13:33:22;14.40;87.60
66328;DHT22;53133;52.862;6.602;2023-05-23T13:35:49;14.50;84.00
66328;DHT22;53133;52.862;6.602;2023-05-23T13:38:17;14.70;81.50
66328;DHT22;53133;52.862;6.602;2023-05-23T13:40:43;14.70;78.10
66328;DHT22;53133;52.862;6.602;2023-05-23T13:43:09;14.70;79.00
66328;DHT22;53133;52.862;6.602;2023-05-23T13:45:35;14.80;80.70
66328;DHT22;53133;52.862;6.602;2023-05-23T13:48:01;14.90;79.50
66328;DHT22;53133;52.862;6.602;2023-05-23T13:50:27;14.90;78.30
66328;DHT22;53133;52.862;6.602;2023-05-23T13:52:52;14.90;80.20
66328;DHT22;53133;52.862;6.602;2023-05-23T13:55:18;15.00;81.60
66328;DHT22;53133;52.862;6.602;2023-05-23T13:57:44;15.10;84.00
66328;DHT22;53133;52.862;6.602;2023-05-23T14:00:10;15.20;82.80
66328;DHT22;53133;52.862;6.602;2023-05-23T14:02:39;15.20;79.80
66328;DHT22;53133;52.862;6.602;2023-05-23T14:05:05;15.20;74.60
66328;DHT22;53133;52.862;6.602;2023-05-23T14:07:32;15.20;77.00
66328;DHT22;53133;52.862;6.602;2023-05-23T14:09:58;15.20;77.40
66328;DHT22;53133;52.862;6.602;2023-05-23T14:12:24;15.10;77.40
66328;DHT22;53133;52.862;6.602;2023-05-23T14:14:50;15.10;78.10
66328;DHT22;53133;52.862;6.602;2023-05-23T14:17:16;15.10;76.50
66328;DHT22;53133;52.862;6.602;2023-05-23T14:19:42;15.00;76.10
66328;DHT22;53133;52.862;6.602;2023-05-23T14:22:07;15.00;76.60
66328;DHT22;53133;52.862;6.602;2023-05-23T14:24:33;15.00;76.00
66328;DHT22;53133;52.862;6.602;2023-05-23T14:26:58;15.10;76.10
66328;DHT22;53133;52.862;6.602;2023-05-23T14:29:28;15.10;74.00
66328;DHT22;53133;52.862;6.602;2023-05-23T14:31:53;15.30;73.50
66328;DHT22;53133;52.862;6.602;2023-05-23T14:34:19;15.40;73.70
66328;DHT22;53133;52.862;6.602;2023-05-23T14:36:45;15.50;73.20
66328;DHT22;53133;52.862;6.602;2023-05-23T14:39:11;15.50;72.40
66328;DHT22;53133;52.862;6.602;2023-05-23T14:41:36;15.30;71.80
66328;DHT22;53133;52.862;6.602;2023-05-23T14:44:02;15.20;70.40
66328;DHT22;53133;52.862;6.602;2023-05-23T14:46:31;15.20;71.00
66328;DHT22;53133;52.862;6.602;2023-05-23T14:48:56;15.30;71.50
66328;DHT22;53133;52.862;6.602;2023-05-23T14:51:22;15.40;72.10
66328;DHT22;53133;52.862;6.602;2023-05-23T14:53:48;15.30;72.40
66328;DHT22;53133;52.862;6.602;2023-05-23T14:56:13;15.30;72.60
66328;DHT22;53133;52.862;6.602;2023-05-23T14:58:39;15.20;73.10
66328;DHT22;53133;52.862;6.602;2023-05-23T15:01:10;15.00;71.40
66328;DHT22;53133;52.862;6.602;2023-05-23T15:03:37;14.90;70.60
66328;DHT22;53133;52.862;6.602;2023-05-23T15:06:03;14.80;71.40
66328;DHT22;53133;52.862;6.602;2023-05-23T15:08:30;14.80;72.00
66328;DHT22;53133;52.862;6.602;2023-05-23T15:10:56;14.80;71.30
66328;DHT22;53133;52.862;6.602;2023-05-23T15:13:21;14.80;71.60
66328;DHT22;53133;52.862;6.602;2023-05-23T15:15:47;14.80;71.40
66328;DHT22;53133;52.862;6.602;2023-05-23T15:18:13;14.80;71.00
66328;DHT22;53133;52.862;6.602;2023-05-23T15:20:39;14.80;69.80
66328;DHT22;53133;52.862;6.602;2023-05-23T15:23:05;14.70;69.00
66328;DHT22;53133;52.862;6.602;2023-05-23T15:25:31;14.50;70.20
66328;DHT22;53133;52.862;6.602;2023-05-23T15:27:57;14.40;71.70
66328;DHT22;53133;52.862;6.602;2023-05-23T15:30:22;14.40;72.60
66328;DHT22;53133;52.862;6.602;2023-05-23T15:32:48;14.30;74.10
66328;DHT22;53133;52.862;6.602;2023-05-23T15:35:13;14.20;75.60
66328;DHT22;53133;52.862;6.602;2023-05-23T15:37:40;14.20;77.30
66328;DHT22;53133;52.862;6.602;2023-05-23T15:40:07;14.20;78.60
66328;DHT22;53133;52.862;6.602;2023-05-23T15:42:34;14.10;78.70
66328;DHT22;53133;52.862;6.602;2023-05-23T15:44:59;14.10;79.00
66328;DHT22;53133;52.862;6.602;2023-05-23T15:47:25;14.10;77.70
66328;DHT22;53133;52.862;6.602;2023-05-23T15:49:51;14.10;75.40